Time;durP1;ratioP1;P1;durP2;ratioP2;P2;SDS_P1;SDS_P2;PMS_P1;PMS_P2;Temp;Humidity;BMP_temperature;BMP_pressure;BME280_temperature;BME280_humidity;BME280_pressure;Samples;Min_cycle;Max_cycle;Signal;HPM_P1;HPM_P2
2023/10/25 00:02:09;;;;;;;;;;;;;;;28.86;33.17;96528.81;4913390;29;19959;-93
2023/10/25 00:04:35;;;;;;;;;;;;;;;27.67;35.39;96516.16;4914439;29;19923;-93
2023/10/25 00:07:01;;;;;;;;;;;;;;;27.55;35.43;96510.88;4922173;29;19958;-92
2023/10/25 00:09:27;;;;;;;;;;;;;;;28.58;34.00;96517.28;4909366;29;19927;-94
2023/10/25 00:11:54;;;;;;;;;;;;;;;29.45;32.27;96512.72;4912316;29;19923;-94
2023/10/25 00:14:20;;;;;;;;;;;;;;;30.08;31.28;96505.44;4909093;29;19969;-94
2023/10/25 00:16:46;;;;;;;;;;;;;;;30.17;30.90;96495.94;4910990;29;19930;-92
2023/10/25 00:19:12;;;;;;;;;;;;;;;30.66;30.32;96502.91;4909631;29;19924;-92
2023/10/25 00:21:38;;;;;;;;;;;;;;;31.02;30.07;96486.88;4904733;29;20027;-94
2023/10/25 00:24:04;;;;;;;;;;;;;;;30.90;29.81;96494.66;4910163;29;20370;-93
2023/10/25 00:26:30;;;;;;;;;;;;;;;31.02;29.61;96486.88;4910739;29;19923;-93
2023/10/25 00:28:58;;;;;;;;;;;;;;;31.37;29.36;96484.97;4902293;29;19924;-93
2023/10/25 00:31:24;;;;;;;;;;;;;;;30.83;29.91;96488.72;4903388;29;19946;-94
2023/10/25 00:33:50;;;;;;;;;;;;;;;30.97;29.79;96491.28;4904023;29;19927;-94
2023/10/25 00:36:16;;;;;;;;;;;;;;;31.48;28.78;96480.56;4913020;29;20447;-95
2023/10/25 00:38:42;;;;;;;;;;;;;;;31.75;28.34;96480.44;4905041;29;19971;-94
2023/10/25 00:41:09;;;;;;;;;;;;;;;31.12;29.53;96471.13;4908122;29;19931;-93
2023/10/25 00:43:35;;;;;;;;;;;;;;;31.09;29.32;96472.94;4911999;29;20026;-93
2023/10/25 00:46:08;;;;;;;;;;;;;;;31.13;29.86;96476.31;4908954;29;19930;-93
2023/10/25 00:48:35;;;;;;;;;;;;;;;31.66;28.62;96475.06;4897987;29;19978;-93
2023/10/25 00:51:01;;;;;;;;;;;;;;;31.85;28.56;96461.03;4913658;29;19923;-94
2023/10/25 00:53:29;;;;;;;;;;;;;;;31.60;28.75;96462.97;4907196;29;19924;-94
2023/10/25 00:55:56;;;;;;;;;;;;;;;31.25;29.43;96460.03;4906531;29;20010;-94
2023/10/25 00:58:22;;;;;;;;;;;;;;;30.43;30.56;96448.34;4908959;29;19923;-94
2023/10/25 01:00:49;;;;;;;;;;;;;;;30.95;30.00;96459.09;4910132;29;20272;-93
2023/10/25 01:03:16;;;;;;;;;;;;;;;31.44;28.93;96449.63;4908976;29;20010;-92
2023/10/25 01:05:42;;;;;;;;;;;;;;;30.82;29.97;96442.59;4907614;29;19930;-93
2023/10/25 01:08:09;;;;;;;;;;;;;;;30.63;30.45;96438.78;4907227;29;20295;-94
2023/10/25 01:10:35;;;;;;;;;;;;;;;30.82;30.12;96439.78;4911461;29;19946;-92
2023/10/25 01:13:02;;;;;;;;;;;;;;;30.88;29.93;96434.88;4913457;29;19923;-93
2023/10/25 01:15:28;;;;;;;;;;;;;;;30.15;30.85;96426.97;4904390;29;19923;-93
2023/10/25 01:17:54;;;;;;;;;;;;;;;30.13;30.95;96421.03;4905545;29;19933;-94
2023/10/25 01:20:20;;;;;;;;;;;;;;;30.33;30.66;96423.63;4905406;29;19930;-93
2023/10/25 01:22:47;;;;;;;;;;;;;;;30.53;30.47;96420.50;4905158;29;19920;-93
2023/10/25 01:25:13;;;;;;;;;;;;;;;30.56;30.43;96427.97;4914596;29;20302;-93
2023/10/25 01:27:40;;;;;;;;;;;;;;;30.29;30.68;96418.22;4909451;29;20269;-93
2023/10/25 01:30:06;;;;;;;;;;;;;;;30.00;31.41;96411.00;4904272;29;20017;-92
2023/10/25 01:32:32;;;;;;;;;;;;;;;30.22;31.03;96412.28;4916515;29;19967;-93
2023/10/25 01:34:59;;;;;;;;;;;;;;;30.61;30.13;96407.34;4911050;29;20388;-93
2023/10/25 01:37:25;;;;;;;;;;;;;;;30.47;30.61;96414.09;4886271;29;19924;-94
2023/10/25 01:39:50;;;;;;;;;;;;;;;30.62;30.50;96412.50;4914751;29;20360;-94
2023/10/25 01:42:16;;;;;;;;;;;;;;;30.22;30.60;96404.56;4918574;29;19919;-94
2023/10/25 01:44:43;;;;;;;;;;;;;;;30.00;31.42;96398.91;4908955;29;20336;-93
2023/10/25 01:47:09;;;;;;;;;;;;;;;30.16;30.93;96406.63;4909185;29;19970;-93
2023/10/25 01:49:35;;;;;;;;;;;;;;;30.42;30.47;96414.84;4918733;29;19930;-94
2023/10/25 01:52:02;;;;;;;;;;;;;;;30.43;30.62;96405.88;4907131;29;19924;-93
2023/10/25 01:54:28;;;;;;;;;;;;;;;30.58;30.45;96402.72;4907225;29;19942;-94
2023/10/25 01:56:54;;;;;;;;;;;;;;;30.39;30.84;96404.56;4913189;29;19924;-95
2023/10/25 01:59:20;;;;;;;;;;;;;;;30.41;30.70;96396.34;4907568;29;20296;-93
2023/10/25 02:01:46;;;;;;;;;;;;;;;30.26;30.95;96402.25;4903970;29;19923;-94
2023/10/25 02:04:12;;;;;;;;;;;;;;;30.42;30.73;96400.69;4905820;29;20006;-93
2023/10/25 02:06:39;;;;;;;;;;;;;;;29.96;31.47;96395.56;4913298;29;19927;-93
2023/10/25 02:09:05;;;;;;;;;;;;;;;30.05;31.33;96401.75;4919950;29;19923;-93
2023/10/25 02:11:31;;;;;;;;;;;;;;;30.39;30.67;96402.50;4911925;29;19946;-93
2023/10/25 02:13:57;;;;;;;;;;;;;;;30.23;30.89;96394.78;4917754;29;19923;-92
2023/10/25 02:16:23;;;;;;;;;;;;;;;30.64;30.54;96397.84;4910900;29;19919;-92
2023/10/25 02:18:49;;;;;;;;;;;;;;;31.25;29.32;96400.47;4852367;29;1847958;-92
2023/10/25 02:21:15;;;;;;;;;;;;;;;31.54;29.05;96393.34;4908393;29;19931;-91
2023/10/25 02:23:42;;;;;;;;;;;;;;;31.79;28.67;96392.16;4914772;29;19923;-92
2023/10/25 02:26:08;;;;;;;;;;;;;;;31.72;28.41;96393.50;4910352;29;19927;-91
2023/10/25 02:28:34;;;;;;;;;;;;;;;31.54;28.88;96390.53;4894568;29;20404;-91
2023/10/25 02:31:03;;;;;;;;;;;;;;;31.56;29.15;96391.53;4892874;29;19963;-91
2023/10/25 02:33:29;;;;;;;;;;;;;;;31.71;28.65;96396.88;4908476;29;20384;-91
2023/10/25 02:35:56;;;;;;;;;;;;;;;31.70;28.67;96387.56;4897589;29;19994;-91
2023/10/25 02:38:22;;;;;;;;;;;;;;;31.75;28.45;96386.78;4915349;29;19930;-92
2023/10/25 02:40:47;;;;;;;;;;;;;;;31.73;28.41;96386.53;4908430;29;19924;-92
2023/10/25 02:43:13;;;;;;;;;;;;;;;31.68;28.83;96380.88;4914670;29;19930;-92
2023/10/25 02:45:39;;;;;;;;;;;;;;;31.56;28.71;96379.41;4900172;29;19938;-92
2023/10/25 02:48:12;;;;;;;;;;;;;;;31.62;28.65;96389.44;4908741;29;19924;-92
2023/10/25 02:50:39;;;;;;;;;;;;;;;31.55;29.06;96384.34;4911718;29;20419;-92
2023/10/25 02:53:05;;;;;;;;;;;;;;;31.75;28.53;96378.25;4911886;29;19927;-91
2023/10/25 02:55:32;;;;;;;;;;;;;;;31.66;28.47;96389.94;4915999;29;20319;-92
2023/10/25 02:57:58;;;;;;;;;;;;;;;31.59;28.99;96375.53;4912778;29;19930;-93
2023/10/25 03:00:24;;;;;;;;;;;;;;;31.49;28.74;96377.13;4914387;29;19931;-91
2023/10/25 03:02:50;;;;;;;;;;;;;;;31.52;29.09;96378.94;4907497;29;19971;-92
2023/10/25 03:05:16;;;;;;;;;;;;;;;31.30;28.98;96372.06;4915693;29;20287;-92
2023/10/25 03:07:42;;;;;;;;;;;;;;;31.10;29.40;96371.66;4908612;29;20414;-93
2023/10/25 03:10:08;;;;;;;;;;;;;;;31.15;29.31;96380.16;4901693;29;19951;-95
2023/10/25 03:12:34;;;;;;;;;;;;;;;30.94;29.77;96369.66;4909155;29;19929;-93
2023/10/25 03:15:00;;;;;;;;;;;;;;;30.96;29.80;96384.88;4916713;29;19919;-93
2023/10/25 03:17:27;;;;;;;;;;;;;;;31.02;29.59;96379.94;4890413;29;19985;-94
2023/10/25 03:19:53;;;;;;;;;;;;;;;31.20;29.48;96376.50;4894187;29;20294;-94
2023/10/25 03:22:19;;;;;;;;;;;;;;;31.25;29.33;96383.47;4912008;29;20414;-94
2023/10/25 03:24:45;;;;;;;;;;;;;;;31.42;29.18;96382.09;4910407;29;19924;-93
2023/10/25 03:27:11;;;;;;;;;;;;;;;31.96;28.10;96387.13;4914477;29;19927;-93
2023/10/25 03:29:37;;;;;;;;;;;;;;;32.35;27.89;96379.06;4918701;29;19923;-93
2023/10/25 03:32:03;;;;;;;;;;;;;;;32.20;28.00;96386.44;4914762;29;19923;-94
2023/10/25 03:34:29;;;;;;;;;;;;;;;32.40;27.70;96374.63;4911377;29;19929;-93
2023/10/25 03:36:55;;;;;;;;;;;;;;;32.24;28.12;96372.72;4907308;29;19928;-94
2023/10/25 03:39:21;;;;;;;;;;;;;;;32.48;27.81;96378.41;4901942;29;19971;-93
2023/10/25 03:41:47;;;;;;;;;;;;;;;32.62;27.34;96368.75;4903147;29;19924;-93
2023/10/25 03:44:13;;;;;;;;;;;;;;;32.69;27.44;96368.16;4902740;29;20386;-93
2023/10/25 03:46:39;;;;;;;;;;;;;;;32.75;27.31;96368.84;4907525;29;19930;-94
2023/10/25 03:49:06;;;;;;;;;;;;;;;32.91;26.87;96373.56;4908263;29;19923;-93
2023/10/25 03:51:32;;;;;;;;;;;;;;;33.03;26.68;96372.16;4915717;29;20014;-93
2023/10/25 03:53:58;;;;;;;;;;;;;;;33.10;26.67;96377.25;4911006;29;19973;-93
2023/10/25 03:56:24;;;;;;;;;;;;;;;33.14;26.41;96372.00;4905589;29;20384;-94
2023/10/25 03:58:51;;;;;;;;;;;;;;;33.18;26.50;96378.19;4909020;29;19982;-94
2023/10/25 04:01:17;;;;;;;;;;;;;;;33.11;26.87;96380.84;4916521;29;20291;-93
2023/10/25 04:03:43;;;;;;;;;;;;;;;32.47;27.64;96385.41;4914259;29;19923;-93
2023/10/25 04:06:09;;;;;;;;;;;;;;;32.10;28.08;96386.00;4905097;29;19935;-92
2023/10/25 04:08:35;;;;;;;;;;;;;;;32.37;27.51;96384.97;4918610;29;20039;-92
2023/10/25 04:11:01;;;;;;;;;;;;;;;32.62;27.06;96385.78;4904272;29;20283;-93
2023/10/25 04:13:27;;;;;;;;;;;;;;;32.77;27.21;96383.28;4912943;29;19923;-92
2023/10/25 04:15:54;;;;;;;;;;;;;;;32.83;27.07;96383.25;4910955;29;19997;-91
2023/10/25 04:18:21;;;;;;;;;;;;;;;32.71;27.00;96391.91;4912328;29;20372;-92
2023/10/25 04:20:47;;;;;;;;;;;;;;;32.48;27.64;96392.63;4909993;29;19927;-90
2023/10/25 04:23:13;;;;;;;;;;;;;;;32.40;27.69;96392.44;4907682;29;19916;-92
2023/10/25 04:25:39;;;;;;;;;;;;;;;31.11;29.26;96393.06;4904768;29;20288;-91
2023/10/25 04:28:05;;;;;;;;;;;;;;;31.45;29.06;96390.84;4909753;29;19934;-92
2023/10/25 04:30:35;;;;;;;;;;;;;;;31.11;29.63;96390.97;4901374;29;20076;-93
2023/10/25 04:33:01;;;;;;;;;;;;;;;31.17;29.42;96405.91;4910617;29;20336;-92
2023/10/25 04:35:27;;;;;;;;;;;;;;;31.00;30.04;96399.53;4902897;29;20010;-89
2023/10/25 04:37:55;;;;;;;;;;;;;;;30.77;30.20;96392.38;4911238;29;19935;-93
2023/10/25 04:40:21;;;;;;;;;;;;;;;30.41;31.12;96394.25;4903745;29;19928;-91
2023/10/25 04:42:50;;;;;;;;;;;;;;;30.23;31.29;96383.44;4894135;29;20323;-92
2023/10/25 04:45:17;;;;;;;;;;;;;;;30.29;31.17;96395.56;4907477;29;20006;-91
2023/10/25 04:47:43;;;;;;;;;;;;;;;30.18;31.52;96392.72;4913493;29;19923;-91
2023/10/25 04:50:09;;;;;;;;;;;;;;;29.40;32.66;96406.00;4910602;29;19938;-90
2023/10/25 04:52:35;;;;;;;;;;;;;;;29.59;32.33;96400.66;4906310;29;20432;-90
2023/10/25 04:55:01;;;;;;;;;;;;;;;29.04;33.14;96410.47;4905729;29;19928;-91
2023/10/25 04:57:27;;;;;;;;;;;;;;;29.22;33.07;96412.88;4908836;29;19930;-94
2023/10/25 04:59:53;;;;;;;;;;;;;;;29.52;32.36;96413.25;4909913;29;19927;-90
2023/10/25 05:02:19;;;;;;;;;;;;;;;29.85;31.81;96415.38;4904855;29;19956;-95
2023/10/25 05:04:46;;;;;;;;;;;;;;;29.16;33.17;96422.59;4913493;29;20371;-87
2023/10/25 05:07:13;;;;;;;;;;;;;;;29.75;32.24;96423.31;4916842;29;19920;-88
2023/10/25 05:09:39;;;;;;;;;;;;;;;29.02;33.64;96430.00;4917041;29;19975;-88
2023/10/25 05:12:08;;;;;;;;;;;;;;;28.45;34.26;96435.06;4916373;29;19919;-88
2023/10/25 05:14:34;;;;;;;;;;;;;;;29.23;33.07;96437.06;4917173;29;19943;-88
2023/10/25 05:17:01;;;;;;;;;;;;;;;29.63;32.14;96433.06;4917712;29;20001;-88
2023/10/25 05:19:27;;;;;;;;;;;;;;;28.40;34.26;96442.19;4916845;29;19981;-91
2023/10/25 05:21:54;;;;;;;;;;;;;;;26.85;37.47;96442.59;4917464;29;19974;-87
2023/10/25 05:24:21;;;;;;;;;;;;;;;27.19;36.30;96448.16;4917272;29;20368;-88
2023/10/25 05:26:47;;;;;;;;;;;;;;;27.84;35.29;96448.63;4917209;29;19919;-88
2023/10/25 05:29:14;;;;;;;;;;;;;;;27.14;36.36;96459.38;4917296;29;20051;-88
2023/10/25 05:31:41;;;;;;;;;;;;;;;26.94;37.19;96460.13;4901125;29;19928;-88
2023/10/25 05:34:07;;;;;;;;;;;;;;;27.46;35.67;96466.69;4907226;29;20054;-87
2023/10/25 05:36:34;;;;;;;;;;;;;;;27.48;35.82;96474.66;4909888;29;19924;-89
2023/10/25 05:39:02;;;;;;;;;;;;;;;27.63;35.61;96473.31;4907720;29;19956;-87
2023/10/25 05:41:35;;;;;;;;;;;;;;;28.12;34.73;96474.31;4898365;29;19931;-88
2023/10/25 05:44:06;;;;;;;;;;;;;;;28.38;33.90;96489.91;4898183;29;19919;-88
2023/10/25 05:46:32;;;;;;;;;;;;;;;28.54;33.38;96494.16;4910656;29;19919;-87
2023/10/25 05:48:58;;;;;;;;;;;;;;;28.03;34.57;96492.16;4916993;29;20013;-88
2023/10/25 05:51:24;;;;;;;;;;;;;;;28.06;34.48;96496.81;4903198;29;19919;-88
2023/10/25 05:53:51;;;;;;;;;;;;;;;28.79;33.07;96493.31;4898176;29;19920;-87
2023/10/25 05:56:17;;;;;;;;;;;;;;;28.91;32.91;96497.00;4898205;29;19942;-88
2023/10/25 05:58:45;;;;;;;;;;;;;;;28.08;34.00;96499.91;4902496;29;19919;-86
2023/10/25 06:01:11;;;;;;;;;;;;;;;28.00;34.15;96510.13;4916288;29;19971;-87
2023/10/25 06:03:40;;;;;;;;;;;;;;;28.74;33.12;96511.00;4916995;29;19919;-88
2023/10/25 06:06:10;;;;;;;;;;;;;;;29.01;32.47;96521.69;4914091;29;19930;-87
2023/10/25 06:08:36;;;;;;;;;;;;;;;28.95;32.35;96520.91;4917854;29;19923;-87
2023/10/25 06:11:02;;;;;;;;;;;;;;;27.53;34.67;96528.28;4920510;29;19930;-87
2023/10/25 06:13:28;;;;;;;;;;;;;;;27.45;35.17;96524.34;4919352;29;20517;-87
2023/10/25 06:15:54;;;;;;;;;;;;;;;27.99;34.02;96529.09;4898651;29;20412;-88
2023/10/25 06:18:21;;;;;;;;;;;;;;;27.23;36.02;96538.91;4920198;29;20299;-87
2023/10/25 06:20:47;;;;;;;;;;;;;;;27.86;34.51;96528.66;4920321;29;19923;-88
2023/10/25 06:23:13;;;;;;;;;;;;;;;27.77;34.55;96522.41;4920104;29;19942;-88
2023/10/25 06:25:39;;;;;;;;;;;;;;;28.25;33.89;96531.91;4927811;29;20291;-88
2023/10/25 06:28:07;;;;;;;;;;;;;;;28.17;33.71;96536.44;4916650;29;19923;-89
2023/10/25 06:30:33;;;;;;;;;;;;;;;28.66;32.87;96541.75;4920088;29;20005;-88
2023/10/25 06:33:01;;;;;;;;;;;;;;;27.55;34.95;96544.69;4919931;29;20000;-89
2023/10/25 06:35:27;;;;;;;;;;;;;;;28.14;34.01;96545.13;4902624;29;20385;-89
2023/10/25 06:37:53;;;;;;;;;;;;;;;28.44;33.34;96540.78;4919611;29;19919;-89
2023/10/25 06:40:20;;;;;;;;;;;;;;;27.66;34.61;96551.25;4919775;29;19926;-88
2023/10/25 06:42:46;;;;;;;;;;;;;;;27.11;35.35;96551.28;4919993;29;20005;-87
2023/10/25 06:45:14;;;;;;;;;;;;;;;26.48;36.54;96554.91;4919060;29;19927;-89
2023/10/25 06:47:41;;;;;;;;;;;;;;;25.47;38.50;96561.94;4919768;29;20042;-88
2023/10/25 06:50:09;;;;;;;;;;;;;;;26.53;36.98;96557.81;4919683;29;19919;-88
2023/10/25 06:52:35;;;;;;;;;;;;;;;27.30;35.08;96551.81;4919773;29;19926;-87
2023/10/25 06:55:01;;;;;;;;;;;;;;;27.94;34.23;96562.84;4919539;29;20010;-89
2023/10/25 06:57:27;;;;;;;;;;;;;;;27.40;34.61;96568.09;4911705;29;19993;-87
2023/10/25 06:59:54;;;;;;;;;;;;;;;26.74;35.94;96567.09;4905181;29;20173;-87
2023/10/25 07:02:36;;;;;;;;;;;;;;;27.82;34.10;96576.03;4900549;29;20056;-87
2023/10/25 07:05:10;;;;;;;;;;;;;;;27.31;34.89;96582.31;4916146;29;20299;-87
2023/10/25 07:07:36;;;;;;;;;;;;;;;26.66;37.23;96575.16;4919523;29;19935;-87
2023/10/25 07:10:03;;;;;;;;;;;;;;;26.36;36.72;96570.84;4919403;29;20344;-87
2023/10/25 07:12:32;;;;;;;;;;;;;;;26.09;36.98;96585.16;4919036;29;19923;-86
2023/10/25 07:14:58;;;;;;;;;;;;;;;26.78;36.11;96593.03;4919792;29;20022;-88
2023/10/25 07:17:27;;;;;;;;;;;;;;;27.28;35.01;96588.91;4919112;29;19931;-88
2023/10/25 07:19:53;;;;;;;;;;;;;;;27.41;35.05;96599.91;4917870;29;19923;-87
2023/10/25 07:22:19;;;;;;;;;;;;;;;27.18;35.34;96606.47;4919202;29;20303;-88
2023/10/25 07:24:45;;;;;;;;;;;;;;;27.94;33.75;96599.50;4910513;29;19927;-88
2023/10/25 07:27:11;;;;;;;;;;;;;;;28.56;32.83;96610.97;4903298;29;20311;-88
2023/10/25 07:29:39;;;;;;;;;;;;;;;29.01;32.22;96606.47;4911516;29;19919;-88
2023/10/25 07:32:05;;;;;;;;;;;;;;;28.04;33.30;96601.72;4919524;29;20344;-88
2023/10/25 07:34:31;;;;;;;;;;;;;;;27.89;33.55;96609.47;4918906;29;20275;-88
2023/10/25 07:36:57;;;;;;;;;;;;;;;28.56;32.69;96615.84;4918848;29;19919;-88
2023/10/25 07:39:23;;;;;;;;;;;;;;;29.19;31.18;96614.63;4918822;29;19919;-88
2023/10/25 07:41:49;;;;;;;;;;;;;;;29.22;31.23;96610.78;4901706;29;19930;-88
2023/10/25 07:44:18;;;;;;;;;;;;;;;28.46;33.28;96615.25;4918033;29;20379;-87
2023/10/25 07:46:44;;;;;;;;;;;;;;;28.14;32.88;96612.84;4918165;29;19923;-87
2023/10/25 07:49:10;;;;;;;;;;;;;;;28.31;32.27;96611.75;4924813;29;19927;-86
2023/10/25 07:51:36;;;;;;;;;;;;;;;27.68;33.35;96613.56;4937494;29;19973;-88
2023/10/25 07:54:02;;;;;;;;;;;;;;;27.43;33.77;96622.72;4937589;29;19970;-88
2023/10/25 07:56:28;;;;;;;;;;;;;;;27.68;33.25;96621.28;4937477;29;20014;-89
2023/10/25 07:58:54;;;;;;;;;;;;;;;27.36;33.86;96623.88;4904963;29;19958;-86
2023/10/25 08:01:20;;;;;;;;;;;;;;;26.85;34.44;96617.22;4899642;29;20023;-88
2023/10/25 08:03:46;;;;;;;;;;;;;;;27.46;33.84;96616.09;4912274;29;19995;-88
2023/10/25 08:06:13;;;;;;;;;;;;;;;27.28;33.85;96616.34;4918756;29;20325;-88
2023/10/25 08:08:39;;;;;;;;;;;;;;;27.08;34.51;96625.53;4918211;29;19923;-89
2023/10/25 08:11:06;;;;;;;;;;;;;;;27.26;33.85;96624.50;4918468;29;19923;-89
2023/10/25 08:13:33;;;;;;;;;;;;;;;28.11;32.65;96640.03;4918161;29;19919;-89
2023/10/25 08:16:00;;;;;;;;;;;;;;;28.96;31.23;96629.06;4918236;29;20287;-89
2023/10/25 08:18:29;;;;;;;;;;;;;;;28.77;31.20;96636.34;4917722;29;20388;-88
2023/10/25 08:20:56;;;;;;;;;;;;;;;28.35;31.78;96645.41;4917267;29;20001;-88
2023/10/25 08:23:22;;;;;;;;;;;;;;;28.39;31.88;96643.16;4918344;29;19961;-89
2023/10/25 08:25:48;;;;;;;;;;;;;;;27.61;32.83;96647.06;4917666;29;20384;-89
2023/10/25 08:28:14;;;;;;;;;;;;;;;27.86;32.68;96652.00;4901192;29;20411;-88
2023/10/25 08:30:40;;;;;;;;;;;;;;;28.01;32.47;96647.09;4898834;29;20308;-89
2023/10/25 08:33:06;;;;;;;;;;;;;;;27.56;32.86;96648.56;4898920;29;19926;-88
2023/10/25 08:35:32;;;;;;;;;;;;;;;27.16;33.97;96648.44;4905713;29;19930;-89
2023/10/25 08:37:58;;;;;;;;;;;;;;;27.79;32.86;96656.03;4917590;29;20391;-89
2023/10/25 08:40:25;;;;;;;;;;;;;;;27.30;33.76;96645.59;4907941;29;19919;-87
2023/10/25 08:42:51;;;;;;;;;;;;;;;27.59;32.98;96647.56;4936861;29;19918;-88
2023/10/25 08:45:17;;;;;;;;;;;;;;;27.48;32.65;96638.16;4936692;29;19951;-87
2023/10/25 08:47:43;;;;;;;;;;;;;;;27.60;32.88;96654.75;4936651;29;19927;-88
2023/10/25 08:50:10;;;;;;;;;;;;;;;27.49;33.15;96654.59;4929713;29;20299;-88
2023/10/25 08:52:39;;;;;;;;;;;;;;;28.04;32.18;96665.84;4917507;29;19926;-88
2023/10/25 08:55:11;;;;;;;;;;;;;;;28.68;31.15;96657.84;4917130;29;19931;-88
2023/10/25 08:57:40;;;;;;;;;;;;;;;27.58;33.01;96665.75;4926958;29;20272;-88
2023/10/25 09:00:07;;;;;;;;;;;;;;;27.69;32.92;96663.06;4936366;29;19919;-88
2023/10/25 09:02:36;;;;;;;;;;;;;;;27.96;32.14;96668.28;4936595;29;20380;-88
2023/10/25 09:05:03;;;;;;;;;;;;;;;27.36;33.23;96668.22;4936481;29;19919;-88
2023/10/25 09:07:30;;;;;;;;;;;;;;;28.26;31.81;96671.00;4919012;29;19923;-88
2023/10/25 09:09:59;;;;;;;;;;;;;;;28.66;31.33;96674.50;4916868;29;19927;-88
2023/10/25 09:12:25;;;;;;;;;;;;;;;28.30;31.62;96675.13;4917367;29;19919;-88
2023/10/25 09:14:51;;;;;;;;;;;;;;;28.68;30.88;96671.97;4917709;29;19923;-88
2023/10/25 09:17:18;;;;;;;;;;;;;;;28.61;31.13;96666.00;4917282;29;19969;-89
2023/10/25 09:19:44;;;;;;;;;;;;;;;28.51;31.34;96671.00;4915278;29;19935;-88
2023/10/25 09:22:25;;;;;;;;;;;;;;;28.23;31.82;96683.25;4898537;29;19920;-87
2023/10/25 09:24:52;;;;;;;;;;;;;;;28.02;31.95;96674.81;4898076;29;20307;-88
2023/10/25 09:27:19;;;;;;;;;;;;;;;28.80;30.93;96675.66;4899556;29;19919;-88
2023/10/25 09:29:45;;;;;;;;;;;;;;;28.92;30.29;96676.53;4917253;29;19958;-88
2023/10/25 09:32:12;;;;;;;;;;;;;;;28.31;31.64;96684.41;4917783;29;20005;-88
2023/10/25 09:34:38;;;;;;;;;;;;;;;28.47;31.22;96676.06;4917144;29;19926;-88
2023/10/25 09:37:06;;;;;;;;;;;;;;;28.67;31.12;96683.75;4917309;29;19923;-88
2023/10/25 09:39:35;;;;;;;;;;;;;;;28.83;30.60;96694.44;4916868;29;19919;-88
2023/10/25 09:42:02;;;;;;;;;;;;;;;28.52;30.92;96683.84;4917093;29;20387;-87
2023/10/25 09:44:40;;;;;;;;;;;;;;;27.96;31.82;96676.75;4919620;29;19930;-88
2023/10/25 09:47:11;;;;;;;;;;;;;;;27.84;32.31;96691.22;4920968;29;19934;-88
2023/10/25 09:49:42;;;;;;;;;;;;;;;27.95;31.98;96692.16;4920807;29;19979;-88
2023/10/25 09:52:18;;;;;;;;;;;;;;;28.83;30.83;96685.97;4906461;29;19923;-88
2023/10/25 09:54:51;;;;;;;;;;;;;;;29.09;30.30;96689.53;4920548;29;20026;-88
2023/10/25 09:57:21;;;;;;;;;;;;;;;29.04;30.15;96684.63;4901924;29;19923;-88
2023/10/25 09:59:48;;;;;;;;;;;;;;;28.15;31.81;96688.56;4919850;29;19930;-88
2023/10/25 10:02:29;;;;;;;;;;;;;;;28.56;31.37;96695.72;4920552;29;19920;-88
2023/10/25 10:05:00;;;;;;;;;;;;;;;28.58;31.24;96690.34;4924625;29;19926;-88
2023/10/25 10:07:34;;;;;;;;;;;;;;;28.28;31.48;96683.34;4939157;29;19965;-89
2023/10/25 10:10:19;;;;;;;;;;;;;;;27.59;32.50;96686.25;4914008;29;19919;-87
2023/10/25 10:12:54;;;;;;;;;;;;;;;27.98;31.97;96693.97;4901501;29;19920;-88
2023/10/25 10:15:40;;;;;;;;;;;;;;;27.85;32.37;96696.38;4902740;29;19919;-89
2023/10/25 10:18:09;;;;;;;;;;;;;;;26.79;34.11;96703.66;4920054;29;19927;-89
2023/10/25 10:20:35;;;;;;;;;;;;;;;28.10;32.09;96689.25;4912074;29;19923;-88
2023/10/25 10:23:02;;;;;;;;;;;;;;;28.29;31.69;96701.03;4914923;29;20340;-89
2023/10/25 10:25:56;;;;;;;;;;;;;;;28.07;31.61;96695.91;4919970;29;20284;-88
2023/10/25 10:28:48;;;;;;;;;;;;;;;28.57;30.81;96702.09;4918511;29;20401;-88
2023/10/25 10:31:14;;;;;;;;;;;;;;;27.64;32.57;96697.59;4915520;29;19919;-88
2023/10/25 10:33:49;;;;;;;;;;;;;;;27.21;33.81;96701.31;4919350;29;20367;-88
2023/10/25 10:36:23;;;;;;;;;;;;;;;28.03;32.01;96701.75;4919712;29;20451;-89
2023/10/25 10:39:08;;;;;;;;;;;;;;;28.00;31.98;96701.97;4923086;29;20391;-90
2023/10/25 10:41:34;;;;;;;;;;;;;;;27.87;32.05;96709.97;4938984;29;19926;-88
2023/10/25 10:44:00;;;;;;;;;;;;;;;28.02;32.42;96703.03;4936580;29;19919;-89
2023/10/25 10:46:29;;;;;;;;;;;;;;;27.73;32.34;96686.19;4920028;29;19919;-87
2023/10/25 10:49:00;;;;;;;;;;;;;;;27.68;32.31;96698.16;4919644;29;19934;-88
2023/10/25 10:51:27;;;;;;;;;;;;;;;27.87;32.33;96699.47;4919759;29;19926;-87
2023/10/25 10:53:53;;;;;;;;;;;;;;;28.19;31.37;96697.59;4919296;29;19919;-88
2023/10/25 10:56:19;;;;;;;;;;;;;;;27.99;31.50;96692.72;4909713;29;20009;-89
2023/10/25 10:58:45;;;;;;;;;;;;;;;27.59;32.14;96697.53;4921477;29;19969;-87
2023/10/25 11:01:11;;;;;;;;;;;;;;;27.88;33.73;96712.31;4935182;29;20355;-88
2023/10/25 11:03:37;;;;;;;;;;;;;;;27.65;32.11;96706.84;4920590;29;19930;-89
2023/10/25 11:06:04;;;;;;;;;;;;;;;27.48;32.55;96709.44;4900424;29;19919;-89
2023/10/25 11:08:32;;;;;;;;;;;;;;;28.47;31.17;96712.78;4900034;29;19979;-89
2023/10/25 11:10:58;;;;;;;;;;;;;;;28.19;31.47;96713.75;4919334;29;19939;-88
2023/10/25 11:13:24;;;;;;;;;;;;;;;28.26;31.43;96716.94;4902976;29;19919;-89
2023/10/25 11:16:00;;;;;;;;;;;;;;;28.41;31.43;96716.81;4919135;29;19919;-89
2023/10/25 11:18:26;;;;;;;;;;;;;;;28.47;31.35;96712.78;4917338;29;19927;-89
2023/10/25 11:20:52;;;;;;;;;;;;;;;28.40;31.15;96729.41;4900194;29;19967;-89
2023/10/25 11:23:18;;;;;;;;;;;;;;;27.93;32.10;96725.72;4900327;29;19915;-88
2023/10/25 11:25:45;;;;;;;;;;;;;;;27.46;32.45;96728.09;4900099;29;19920;-90
2023/10/25 11:28:11;;;;;;;;;;;;;;;27.57;32.30;96728.25;4901949;29;19919;-90
2023/10/25 11:30:40;;;;;;;;;;;;;;;26.79;33.68;96732.59;4919544;29;20018;-89
2023/10/25 11:33:08;;;;;;;;;;;;;;;27.30;32.87;96732.19;4919018;29;20283;-89
2023/10/25 11:35:35;;;;;;;;;;;;;;;27.15;33.21;96737.84;4917891;29;20021;-89
2023/10/25 11:38:02;;;;;;;;;;;;;;;26.94;34.04;96733.38;4918944;29;19923;-89
2023/10/25 11:40:38;;;;;;;;;;;;;;;26.92;33.62;96712.59;4919106;29;19923;-89
2023/10/25 11:43:05;;;;;;;;;;;;;;;27.13;33.41;96729.09;4918891;29;19919;-88
2023/10/25 11:45:32;;;;;;;;;;;;;;;27.68;32.75;96743.28;4918423;29;20295;-88
2023/10/25 11:47:58;;;;;;;;;;;;;;;28.21;31.98;96740.22;4914018;29;20410;-88
2023/10/25 11:50:24;;;;;;;;;;;;;;;27.86;31.96;96743.06;4937314;29;19923;-88
2023/10/25 11:52:50;;;;;;;;;;;;;;;28.20;31.96;96747.13;4920625;29;19970;-89
2023/10/25 11:55:16;;;;;;;;;;;;;;;28.42;31.43;96755.09;4920508;29;19919;-90
2023/10/25 11:57:42;;;;;;;;;;;;;;;28.03;31.73;96752.53;4920424;29;19965;-90
2023/10/25 12:00:09;;;;;;;;;;;;;;;28.24;33.08;96756.16;4937760;29;20334;-90
2023/10/25 12:02:35;;;;;;;;;;;;;;;28.75;31.02;96747.78;4918134;29;20011;-89
2023/10/25 12:05:04;;;;;;;;;;;;;;;29.06;30.05;96744.25;4917834;29;19941;-89
2023/10/25 12:07:33;;;;;;;;;;;;;;;27.87;31.86;96747.41;4917758;29;20058;-89
2023/10/25 12:09:59;;;;;;;;;;;;;;;27.49;33.93;96739.19;4889769;29;20304;-91
2023/10/25 12:12:25;;;;;;;;;;;;;;;28.12;31.55;96740.38;4907076;29;19923;-91
2023/10/25 12:14:51;;;;;;;;;;;;;;;27.42;33.37;96739.59;4918029;29;19923;-90
2023/10/25 12:17:18;;;;;;;;;;;;;;;27.68;32.57;96751.75;4910618;29;20022;-90
2023/10/25 12:19:44;;;;;;;;;;;;;;;27.95;32.19;96737.28;4900731;29;19927;-90
2023/10/25 12:22:12;;;;;;;;;;;;;;;28.49;31.19;96743.38;4918634;29;19999;-90
2023/10/25 12:24:39;;;;;;;;;;;;;;;28.91;30.99;96743.59;4918167;29;19919;-91
2023/10/25 12:27:07;;;;;;;;;;;;;;;28.89;30.47;96737.69;4917920;29;19923;-89
2023/10/25 12:29:33;;;;;;;;;;;;;;;28.75;30.84;96747.03;4918153;29;19971;-90
2023/10/25 12:32:00;;;;;;;;;;;;;;;28.87;30.76;96736.63;4917961;29;19923;-89
2023/10/25 12:34:26;;;;;;;;;;;;;;;29.41;29.66;96744.84;4916810;29;19927;-90
2023/10/25 12:36:52;;;;;;;;;;;;;;;29.69;29.24;96732.94;4917591;29;19931;-89
2023/10/25 12:39:18;;;;;;;;;;;;;;;29.34;29.51;96736.81;4933009;29;20009;-89
2023/10/25 12:41:44;;;;;;;;;;;;;;;28.56;31.02;96740.91;4919801;29;19926;-89
2023/10/25 12:44:12;;;;;;;;;;;;;;;28.20;32.16;96735.84;4899455;29;20521;-90
2023/10/25 12:46:38;;;;;;;;;;;;;;;29.08;30.40;96744.50;4899365;29;20011;-88
2023/10/25 12:49:05;;;;;;;;;;;;;;;29.53;29.34;96748.53;4915613;29;19950;-90